sensor_id;sensor_type;location;lat;lon;timestamp;P1;durP1;ratioP1;P2;durP2;ratioP2
61907;SDS011;47864;52.526;19.672;2024-02-26T00:01:05;65.13;;;30.60;;
61907;SDS011;47864;52.526;19.672;2024-02-26T00:03:07;64.35;;;29.92;;
61907;SDS011;47864;52.526;19.672;2024-02-26T00:05:09;63.05;;;32.17;;
61907;SDS011;47864;52.526;19.672;2024-02-26T00:07:10;48.35;;;25.65;;
61907;SDS011;47864;52.526;19.672;2024-02-26T00:09:12;52.63;;;25.33;;
61907;SDS011;47864;52.526;19.672;2024-02-26T00:11:13;50.92;;;25.27;;
61907;SDS011;47864;52.526;19.672;2024-02-26T00:13:15;45.80;;;23.20;;
61907;SDS011;47864;52.526;19.672;2024-02-26T00:15:17;46.42;;;24.88;;
61907;SDS011;47864;52.526;19.672;2024-02-26T00:17:18;50.83;;;26.67;;
61907;SDS011;47864;52.526;19.672;2024-02-26T00:19:20;48.90;;;27.52;;
61907;SDS011;47864;52.526;19.672;2024-02-26T00:21:23;47.78;;;28.02;;
61907;SDS011;47864;52.526;19.672;2024-02-26T00:23:25;53.30;;;28.35;;
61907;SDS011;47864;52.526;19.672;2024-02-26T00:25:26;48.72;;;28.73;;
61907;SDS011;47864;52.526;19.672;2024-02-26T00:27:28;44.70;;;28.20;;
61907;SDS011;47864;52.526;19.672;2024-02-26T00:29:29;46.30;;;27.52;;
61907;SDS011;47864;52.526;19.672;2024-02-26T00:31:31;45.30;;;28.13;;
61907;SDS011;47864;52.526;19.672;2024-02-26T00:33:32;50.60;;;29.42;;
61907;SDS011;47864;52.526;19.672;2024-02-26T00:35:34;45.10;;;27.30;;
61907;SDS011;47864;52.526;19.672;2024-02-26T00:37:36;44.63;;;26.25;;
61907;SDS011;47864;52.526;19.672;2024-02-26T00:39:37;44.88;;;28.90;;
61907;SDS011;47864;52.526;19.672;2024-02-26T00:41:42;44.00;;;27.27;;
61907;SDS011;47864;52.526;19.672;2024-02-26T00:43:43;46.63;;;29.85;;
61907;SDS011;47864;52.526;19.672;2024-02-26T00:45:45;52.65;;;32.45;;
61907;SDS011;47864;52.526;19.672;2024-02-26T00:47:46;49.20;;;32.25;;
61907;SDS011;47864;52.526;19.672;2024-02-26T00:49:48;46.33;;;28.65;;
61907;SDS011;47864;52.526;19.672;2024-02-26T00:51:50;43.67;;;28.25;;
61907;SDS011;47864;52.526;19.672;2024-02-26T00:53:51;46.78;;;29.25;;
61907;SDS011;47864;52.526;19.672;2024-02-26T00:55:53;43.63;;;25.52;;
61907;SDS011;47864;52.526;19.672;2024-02-26T00:57:55;45.90;;;27.63;;
61907;SDS011;47864;52.526;19.672;2024-02-26T00:59:56;46.75;;;27.52;;
61907;SDS011;47864;52.526;19.672;2024-02-26T01:01:58;42.67;;;26.05;;
61907;SDS011;47864;52.526;19.672;2024-02-26T01:04:00;45.50;;;27.25;;
61907;SDS011;47864;52.526;19.672;2024-02-26T01:06:01;43.42;;;26.42;;
61907;SDS011;47864;52.526;19.672;2024-02-26T01:08:03;44.65;;;26.92;;
61907;SDS011;47864;52.526;19.672;2024-02-26T01:10:06;38.97;;;25.23;;
61907;SDS011;47864;52.526;19.672;2024-02-26T01:12:08;44.00;;;26.25;;
61907;SDS011;47864;52.526;19.672;2024-02-26T01:14:10;40.25;;;25.50;;
61907;SDS011;47864;52.526;19.672;2024-02-26T01:16:11;46.75;;;25.05;;
61907;SDS011;47864;52.526;19.672;2024-02-26T01:18:13;44.85;;;26.58;;
61907;SDS011;47864;52.526;19.672;2024-02-26T01:20:15;46.05;;;25.25;;
61907;SDS011;47864;52.526;19.672;2024-02-26T01:22:16;40.05;;;24.75;;
61907;SDS011;47864;52.526;19.672;2024-02-26T01:24:18;44.22;;;26.75;;
61907;SDS011;47864;52.526;19.672;2024-02-26T01:26:19;38.88;;;24.58;;
61907;SDS011;47864;52.526;19.672;2024-02-26T01:28:21;43.05;;;26.27;;
61907;SDS011;47864;52.526;19.672;2024-02-26T01:30:22;42.72;;;26.98;;
61907;SDS011;47864;52.526;19.672;2024-02-26T01:32:24;43.40;;;27.63;;
61907;SDS011;47864;52.526;19.672;2024-02-26T01:34:26;42.75;;;28.35;;
61907;SDS011;47864;52.526;19.672;2024-02-26T01:36:28;45.22;;;28.48;;
61907;SDS011;47864;52.526;19.672;2024-02-26T01:38:30;47.53;;;28.70;;
61907;SDS011;47864;52.526;19.672;2024-02-26T01:40:31;55.05;;;29.95;;
61907;SDS011;47864;52.526;19.672;2024-02-26T01:42:33;48.35;;;29.40;;
61907;SDS011;47864;52.526;19.672;2024-02-26T01:44:34;44.65;;;28.17;;
61907;SDS011;47864;52.526;19.672;2024-02-26T01:46:36;47.17;;;29.02;;
61907;SDS011;47864;52.526;19.672;2024-02-26T01:48:37;47.92;;;27.67;;
61907;SDS011;47864;52.526;19.672;2024-02-26T01:50:39;46.25;;;28.30;;
61907;SDS011;47864;52.526;19.672;2024-02-26T01:52:41;43.50;;;27.65;;
61907;SDS011;47864;52.526;19.672;2024-02-26T01:54:43;49.83;;;29.25;;
61907;SDS011;47864;52.526;19.672;2024-02-26T01:56:46;46.55;;;28.25;;
61907;SDS011;47864;52.526;19.672;2024-02-26T01:58:47;46.28;;;26.67;;
61907;SDS011;47864;52.526;19.672;2024-02-26T02:00:49;46.15;;;27.77;;
61907;SDS011;47864;52.526;19.672;2024-02-26T02:02:51;50.00;;;27.50;;
61907;SDS011;47864;52.526;19.672;2024-02-26T02:04:53;46.15;;;28.77;;
61907;SDS011;47864;52.526;19.672;2024-02-26T02:06:55;45.60;;;28.90;;
61907;SDS011;47864;52.526;19.672;2024-02-26T02:08:59;43.92;;;26.23;;
61907;SDS011;47864;52.526;19.672;2024-02-26T02:11:01;50.63;;;28.35;;
61907;SDS011;47864;52.526;19.672;2024-02-26T02:13:02;47.60;;;28.77;;
61907;SDS011;47864;52.526;19.672;2024-02-26T02:15:04;45.83;;;27.70;;
61907;SDS011;47864;52.526;19.672;2024-02-26T02:17:06;51.83;;;30.95;;
61907;SDS011;47864;52.526;19.672;2024-02-26T02:19:08;55.85;;;32.10;;
61907;SDS011;47864;52.526;19.672;2024-02-26T02:21:10;46.33;;;29.30;;
61907;SDS011;47864;52.526;19.672;2024-02-26T02:23:11;51.80;;;29.70;;
61907;SDS011;47864;52.526;19.672;2024-02-26T02:25:13;47.15;;;28.58;;
61907;SDS011;47864;52.526;19.672;2024-02-26T02:27:15;44.47;;;28.42;;
61907;SDS011;47864;52.526;19.672;2024-02-26T02:29:16;48.55;;;29.42;;
61907;SDS011;47864;52.526;19.672;2024-02-26T02:31:18;47.65;;;29.55;;
61907;SDS011;47864;52.526;19.672;2024-02-26T02:33:20;48.95;;;29.25;;
61907;SDS011;47864;52.526;19.672;2024-02-26T02:35:22;50.50;;;28.95;;
61907;SDS011;47864;52.526;19.672;2024-02-26T02:37:24;46.40;;;27.23;;
61907;SDS011;47864;52.526;19.672;2024-02-26T02:39:26;46.20;;;27.25;;
61907;SDS011;47864;52.526;19.672;2024-02-26T02:41:27;42.58;;;26.38;;
61907;SDS011;47864;52.526;19.672;2024-02-26T02:43:29;41.35;;;25.40;;
61907;SDS011;47864;52.526;19.672;2024-02-26T02:45:30;45.00;;;24.17;;
61907;SDS011;47864;52.526;19.672;2024-02-26T02:47:35;41.00;;;23.80;;
61907;SDS011;47864;52.526;19.672;2024-02-26T02:49:37;38.85;;;23.65;;
61907;SDS011;47864;52.526;19.672;2024-02-26T02:51:39;39.88;;;22.33;;
61907;SDS011;47864;52.526;19.672;2024-02-26T02:53:41;40.38;;;22.45;;
61907;SDS011;47864;52.526;19.672;2024-02-26T02:55:42;33.70;;;20.02;;
61907;SDS011;47864;52.526;19.672;2024-02-26T02:57:44;39.80;;;21.17;;
61907;SDS011;47864;52.526;19.672;2024-02-26T02:59:46;35.20;;;21.83;;
61907;SDS011;47864;52.526;19.672;2024-02-26T03:01:47;44.55;;;21.67;;
61907;SDS011;47864;52.526;19.672;2024-02-26T03:03:49;39.35;;;22.02;;
61907;SDS011;47864;52.526;19.672;2024-02-26T03:05:50;35.15;;;21.75;;
61907;SDS011;47864;52.526;19.672;2024-02-26T03:07:52;41.08;;;22.15;;
61907;SDS011;47864;52.526;19.672;2024-02-26T03:09:53;39.30;;;21.83;;
61907;SDS011;47864;52.526;19.672;2024-02-26T03:11:55;39.13;;;22.02;;
61907;SDS011;47864;52.526;19.672;2024-02-26T03:13:57;38.72;;;21.73;;
61907;SDS011;47864;52.526;19.672;2024-02-26T03:16:03;47.25;;;22.95;;
61907;SDS011;47864;52.526;19.672;2024-02-26T03:18:05;37.70;;;22.92;;
61907;SDS011;47864;52.526;19.672;2024-02-26T03:20:07;39.30;;;21.90;;
61907;SDS011;47864;52.526;19.672;2024-02-26T03:22:10;43.17;;;23.23;;
61907;SDS011;47864;52.526;19.672;2024-02-26T03:24:11;41.92;;;22.90;;
61907;SDS011;47864;52.526;19.672;2024-02-26T03:26:13;38.10;;;22.23;;
61907;SDS011;47864;52.526;19.672;2024-02-26T03:28:14;42.33;;;22.80;;
61907;SDS011;47864;52.526;19.672;2024-02-26T03:30:16;46.45;;;23.17;;
61907;SDS011;47864;52.526;19.672;2024-02-26T03:32:18;38.80;;;22.50;;
61907;SDS011;47864;52.526;19.672;2024-02-26T03:34:19;38.50;;;21.77;;
61907;SDS011;47864;52.526;19.672;2024-02-26T03:36:21;38.50;;;22.23;;
61907;SDS011;47864;52.526;19.672;2024-02-26T03:38:23;36.38;;;22.13;;
61907;SDS011;47864;52.526;19.672;2024-02-26T03:40:24;35.50;;;20.52;;
61907;SDS011;47864;52.526;19.672;2024-02-26T03:42:26;35.28;;;21.45;;
61907;SDS011;47864;52.526;19.672;2024-02-26T03:44:28;40.88;;;20.95;;
61907;SDS011;47864;52.526;19.672;2024-02-26T03:46:30;34.50;;;21.20;;
61907;SDS011;47864;52.526;19.672;2024-02-26T03:48:31;40.25;;;21.40;;
61907;SDS011;47864;52.526;19.672;2024-02-26T03:50:33;37.75;;;21.25;;
61907;SDS011;47864;52.526;19.672;2024-02-26T03:52:34;37.08;;;21.45;;
61907;SDS011;47864;52.526;19.672;2024-02-26T03:54:36;36.08;;;21.15;;
61907;SDS011;47864;52.526;19.672;2024-02-26T03:56:37;36.47;;;21.08;;
61907;SDS011;47864;52.526;19.672;2024-02-26T03:58:39;39.97;;;23.58;;
61907;SDS011;47864;52.526;19.672;2024-02-26T04:00:42;37.83;;;20.33;;
61907;SDS011;47864;52.526;19.672;2024-02-26T04:02:44;33.90;;;20.80;;
61907;SDS011;47864;52.526;19.672;2024-02-26T04:04:46;38.75;;;21.50;;
61907;SDS011;47864;52.526;19.672;2024-02-26T04:06:48;37.47;;;22.25;;
61907;SDS011;47864;52.526;19.672;2024-02-26T04:08:50;41.45;;;21.15;;
61907;SDS011;47864;52.526;19.672;2024-02-26T04:10:51;37.97;;;22.70;;
61907;SDS011;47864;52.526;19.672;2024-02-26T04:12:53;37.83;;;22.30;;
61907;SDS011;47864;52.526;19.672;2024-02-26T04:14:54;42.85;;;23.35;;
61907;SDS011;47864;52.526;19.672;2024-02-26T04:16:56;40.83;;;22.42;;
61907;SDS011;47864;52.526;19.672;2024-02-26T04:18:58;39.40;;;21.92;;
61907;SDS011;47864;52.526;19.672;2024-02-26T04:20:59;40.38;;;23.25;;
61907;SDS011;47864;52.526;19.672;2024-02-26T04:23:02;41.00;;;24.02;;
61907;SDS011;47864;52.526;19.672;2024-02-26T04:25:04;42.13;;;23.73;;
61907;SDS011;47864;52.526;19.672;2024-02-26T04:27:06;40.42;;;22.88;;
61907;SDS011;47864;52.526;19.672;2024-02-26T04:29:07;43.80;;;23.48;;
61907;SDS011;47864;52.526;19.672;2024-02-26T04:31:09;42.50;;;23.90;;
61907;SDS011;47864;52.526;19.672;2024-02-26T04:33:10;45.35;;;24.63;;
61907;SDS011;47864;52.526;19.672;2024-02-26T04:35:12;43.75;;;24.75;;
61907;SDS011;47864;52.526;19.672;2024-02-26T04:37:14;47.00;;;24.75;;
61907;SDS011;47864;52.526;19.672;2024-02-26T04:39:15;39.92;;;23.67;;
61907;SDS011;47864;52.526;19.672;2024-02-26T04:41:17;41.83;;;23.85;;
61907;SDS011;47864;52.526;19.672;2024-02-26T04:43:18;40.85;;;23.98;;
61907;SDS011;47864;52.526;19.672;2024-02-26T04:45:20;49.55;;;24.50;;
61907;SDS011;47864;52.526;19.672;2024-02-26T04:47:22;48.55;;;25.15;;
61907;SDS011;47864;52.526;19.672;2024-02-26T04:49:23;44.25;;;24.70;;
61907;SDS011;47864;52.526;19.672;2024-02-26T04:51:25;39.92;;;23.55;;
61907;SDS011;47864;52.526;19.672;2024-02-26T04:53:27;49.22;;;26.75;;
61907;SDS011;47864;52.526;19.672;2024-02-26T04:55:28;46.35;;;25.60;;
61907;SDS011;47864;52.526;19.672;2024-02-26T04:57:30;55.83;;;29.02;;
61907;SDS011;47864;52.526;19.672;2024-02-26T04:59:31;54.53;;;27.55;;
61907;SDS011;47864;52.526;19.672;2024-02-26T05:01:33;55.10;;;28.45;;
61907;SDS011;47864;52.526;19.672;2024-02-26T05:03:34;53.08;;;27.10;;
61907;SDS011;47864;52.526;19.672;2024-02-26T05:05:37;41.63;;;24.80;;
61907;SDS011;47864;52.526;19.672;2024-02-26T05:07:40;46.67;;;26.38;;
61907;SDS011;47864;52.526;19.672;2024-02-26T05:09:41;41.85;;;24.40;;
61907;SDS011;47864;52.526;19.672;2024-02-26T05:11:43;47.88;;;23.70;;
61907;SDS011;47864;52.526;19.672;2024-02-26T05:13:45;45.35;;;24.17;;
61907;SDS011;47864;52.526;19.672;2024-02-26T05:15:46;41.35;;;23.02;;
61907;SDS011;47864;52.526;19.672;2024-02-26T05:17:48;44.25;;;25.23;;
61907;SDS011;47864;52.526;19.672;2024-02-26T05:19:49;43.88;;;24.58;;
61907;SDS011;47864;52.526;19.672;2024-02-26T05:21:51;44.38;;;25.77;;
61907;SDS011;47864;52.526;19.672;2024-02-26T05:23:53;45.17;;;23.88;;
61907;SDS011;47864;52.526;19.672;2024-02-26T05:25:54;44.53;;;23.30;;
61907;SDS011;47864;52.526;19.672;2024-02-26T05:27:56;120.28;;;41.05;;
61907;SDS011;47864;52.526;19.672;2024-02-26T05:29:58;86.20;;;33.30;;
61907;SDS011;47864;52.526;19.672;2024-02-26T05:31:59;81.80;;;34.45;;
61907;SDS011;47864;52.526;19.672;2024-02-26T05:34:01;73.32;;;33.42;;
61907;SDS011;47864;52.526;19.672;2024-02-26T05:36:03;70.45;;;33.75;;
61907;SDS011;47864;52.526;19.672;2024-02-26T05:38:04;73.93;;;36.97;;
61907;SDS011;47864;52.526;19.672;2024-02-26T05:40:06;87.97;;;39.65;;
61907;SDS011;47864;52.526;19.672;2024-02-26T05:42:08;81.10;;;35.22;;
61907;SDS011;47864;52.526;19.672;2024-02-26T05:44:10;80.40;;;35.97;;
61907;SDS011;47864;52.526;19.672;2024-02-26T05:46:12;75.87;;;33.97;;
61907;SDS011;47864;52.526;19.672;2024-02-26T05:48:14;80.45;;;36.55;;
61907;SDS011;47864;52.526;19.672;2024-02-26T05:50:15;75.25;;;35.67;;
61907;SDS011;47864;52.526;19.672;2024-02-26T05:52:17;60.60;;;30.75;;
61907;SDS011;47864;52.526;19.672;2024-02-26T05:54:18;68.63;;;31.48;;
61907;SDS011;47864;52.526;19.672;2024-02-26T05:56:21;66.05;;;34.78;;
61907;SDS011;47864;52.526;19.672;2024-02-26T05:58:23;57.70;;;33.47;;
61907;SDS011;47864;52.526;19.672;2024-02-26T06:00:24;67.80;;;34.33;;
61907;SDS011;47864;52.526;19.672;2024-02-26T06:02:26;87.82;;;38.30;;
61907;SDS011;47864;52.526;19.672;2024-02-26T06:04:28;77.20;;;34.92;;
61907;SDS011;47864;52.526;19.672;2024-02-26T06:06:29;78.25;;;35.00;;
61907;SDS011;47864;52.526;19.672;2024-02-26T06:08:31;72.63;;;33.47;;
61907;SDS011;47864;52.526;19.672;2024-02-26T06:10:32;67.28;;;32.05;;
61907;SDS011;47864;52.526;19.672;2024-02-26T06:12:37;69.25;;;33.40;;
61907;SDS011;47864;52.526;19.672;2024-02-26T06:14:38;99.38;;;41.58;;
61907;SDS011;47864;52.526;19.672;2024-02-26T06:16:40;110.95;;;44.70;;
61907;SDS011;47864;52.526;19.672;2024-02-26T06:18:41;99.25;;;42.72;;
61907;SDS011;47864;52.526;19.672;2024-02-26T06:22:55;60.90;;;31.23;;
61907;SDS011;47864;52.526;19.672;2024-02-26T06:24:57;58.35;;;30.77;;
61907;SDS011;47864;52.526;19.672;2024-02-26T06:26:59;52.38;;;29.42;;
61907;SDS011;47864;52.526;19.672;2024-02-26T06:29:00;50.42;;;27.85;;
61907;SDS011;47864;52.526;19.672;2024-02-26T06:31:02;52.08;;;25.65;;
61907;SDS011;47864;52.526;19.672;2024-02-26T06:33:04;46.40;;;25.52;;
61907;SDS011;47864;52.526;19.672;2024-02-26T06:35:06;43.55;;;25.88;;
61907;SDS011;47864;52.526;19.672;2024-02-26T06:37:08;37.70;;;24.08;;
61907;SDS011;47864;52.526;19.672;2024-02-26T06:39:10;37.28;;;22.80;;
61907;SDS011;47864;52.526;19.672;2024-02-26T06:41:12;38.17;;;23.48;;
61907;SDS011;47864;52.526;19.672;2024-02-26T06:43:13;42.72;;;25.08;;
61907;SDS011;47864;52.526;19.672;2024-02-26T06:45:15;53.78;;;25.88;;
61907;SDS011;47864;52.526;19.672;2024-02-26T06:47:16;44.95;;;24.52;;
61907;SDS011;47864;52.526;19.672;2024-02-26T06:49:18;47.58;;;25.60;;
61907;SDS011;47864;52.526;19.672;2024-02-26T06:51:20;48.70;;;25.40;;
61907;SDS011;47864;52.526;19.672;2024-02-26T06:53:22;42.80;;;24.48;;
61907;SDS011;47864;52.526;19.672;2024-02-26T06:55:23;37.90;;;22.73;;
61907;SDS011;47864;52.526;19.672;2024-02-26T06:57:24;38.83;;;23.35;;
61907;SDS011;47864;52.526;19.672;2024-02-26T06:59:26;45.05;;;23.55;;
61907;SDS011;47864;52.526;19.672;2024-02-26T07:01:28;39.80;;;22.80;;
61907;SDS011;47864;52.526;19.672;2024-02-26T07:03:29;36.17;;;22.20;;
61907;SDS011;47864;52.526;19.672;2024-02-26T07:05:31;39.10;;;23.08;;
61907;SDS011;47864;52.526;19.672;2024-02-26T07:07:32;37.35;;;20.27;;
61907;SDS011;47864;52.526;19.672;2024-02-26T07:09:34;38.65;;;20.15;;
61907;SDS011;47864;52.526;19.672;2024-02-26T07:11:36;32.83;;;19.27;;
61907;SDS011;47864;52.526;19.672;2024-02-26T07:13:37;33.13;;;18.42;;
61907;SDS011;47864;52.526;19.672;2024-02-26T07:15:38;31.50;;;18.70;;
61907;SDS011;47864;52.526;19.672;2024-02-26T07:17:40;31.67;;;18.75;;
61907;SDS011;47864;52.526;19.672;2024-02-26T07:19:42;31.05;;;18.35;;
61907;SDS011;47864;52.526;19.672;2024-02-26T07:21:44;32.38;;;18.92;;
61907;SDS011;47864;52.526;19.672;2024-02-26T07:23:45;36.38;;;19.75;;
61907;SDS011;47864;52.526;19.672;2024-02-26T07:25:47;37.25;;;20.00;;
61907;SDS011;47864;52.526;19.672;2024-02-26T07:27:49;30.27;;;18.52;;
61907;SDS011;47864;52.526;19.672;2024-02-26T07:29:53;32.80;;;19.20;;
61907;SDS011;47864;52.526;19.672;2024-02-26T07:31:55;34.63;;;18.98;;
61907;SDS011;47864;52.526;19.672;2024-02-26T07:33:57;31.52;;;19.90;;
61907;SDS011;47864;52.526;19.672;2024-02-26T07:35:58;37.92;;;19.85;;
61907;SDS011;47864;52.526;19.672;2024-02-26T07:38:00;31.55;;;18.67;;
61907;SDS011;47864;52.526;19.672;2024-02-26T07:40:02;32.22;;;19.90;;
61907;SDS011;47864;52.526;19.672;2024-02-26T07:42:04;32.88;;;18.33;;
61907;SDS011;47864;52.526;19.672;2024-02-26T07:44:06;32.03;;;19.00;;
61907;SDS011;47864;52.526;19.672;2024-02-26T07:46:07;31.15;;;18.90;;
61907;SDS011;47864;52.526;19.672;2024-02-26T07:48:12;37.72;;;19.65;;
61907;SDS011;47864;52.526;19.672;2024-02-26T07:50:14;35.03;;;18.58;;
61907;SDS011;47864;52.526;19.672;2024-02-26T07:52:16;34.83;;;20.33;;
61907;SDS011;47864;52.526;19.672;2024-02-26T07:54:17;35.58;;;20.67;;
61907;SDS011;47864;52.526;19.672;2024-02-26T07:56:19;38.53;;;21.33;;
61907;SDS011;47864;52.526;19.672;2024-02-26T07:58:21;35.22;;;20.73;;
61907;SDS011;47864;52.526;19.672;2024-02-26T08:00:24;36.30;;;19.30;;
61907;SDS011;47864;52.526;19.672;2024-02-26T08:02:26;35.42;;;19.95;;
61907;SDS011;47864;52.526;19.672;2024-02-26T08:04:27;34.13;;;19.00;;
61907;SDS011;47864;52.526;19.672;2024-02-26T08:06:29;40.53;;;20.35;;
61907;SDS011;47864;52.526;19.672;2024-02-26T08:08:32;34.45;;;20.80;;
61907;SDS011;47864;52.526;19.672;2024-02-26T08:10:34;37.85;;;21.23;;
61907;SDS011;47864;52.526;19.672;2024-02-26T08:12:35;38.63;;;23.30;;
61907;SDS011;47864;52.526;19.672;2024-02-26T08:14:37;33.50;;;21.23;;
61907;SDS011;47864;52.526;19.672;2024-02-26T08:16:38;36.15;;;20.52;;
61907;SDS011;47864;52.526;19.672;2024-02-26T08:18:40;36.58;;;23.27;;
61907;SDS011;47864;52.526;19.672;2024-02-26T08:20:42;37.50;;;20.65;;
61907;SDS011;47864;52.526;19.672;2024-02-26T08:22:43;34.25;;;19.80;;
61907;SDS011;47864;52.526;19.672;2024-02-26T08:24:45;34.83;;;17.73;;
61907;SDS011;47864;52.526;19.672;2024-02-26T08:26:46;42.47;;;22.38;;
61907;SDS011;47864;52.526;19.672;2024-02-26T08:28:48;41.22;;;21.50;;
61907;SDS011;47864;52.526;19.672;2024-02-26T08:30:49;33.80;;;19.13;;
61907;SDS011;47864;52.526;19.672;2024-02-26T08:32:51;37.28;;;21.20;;
61907;SDS011;47864;52.526;19.672;2024-02-26T08:34:53;40.28;;;19.92;;
61907;SDS011;47864;52.526;19.672;2024-02-26T08:36:54;31.40;;;19.00;;
61907;SDS011;47864;52.526;19.672;2024-02-26T08:38:56;32.72;;;19.70;;
61907;SDS011;47864;52.526;19.672;2024-02-26T08:40:58;37.55;;;19.38;;
61907;SDS011;47864;52.526;19.672;2024-02-26T08:42:59;33.90;;;18.80;;
61907;SDS011;47864;52.526;19.672;2024-02-26T08:45:01;34.75;;;19.27;;
61907;SDS011;47864;52.526;19.672;2024-02-26T08:47:03;35.67;;;19.42;;
61907;SDS011;47864;52.526;19.672;2024-02-26T08:49:05;34.25;;;18.27;;
61907;SDS011;47864;52.526;19.672;2024-02-26T08:51:07;33.75;;;18.83;;
61907;SDS011;47864;52.526;19.672;2024-02-26T08:53:09;33.38;;;19.23;;
61907;SDS011;47864;52.526;19.672;2024-02-26T08:55:11;36.67;;;20.13;;
61907;SDS011;47864;52.526;19.672;2024-02-26T08:57:12;36.55;;;20.05;;
61907;SDS011;47864;52.526;19.672;2024-02-26T08:59:14;35.67;;;20.00;;
61907;SDS011;47864;52.526;19.672;2024-02-26T09:01:15;31.15;;;18.52;;
61907;SDS011;47864;52.526;19.672;2024-02-26T09:03:17;34.17;;;19.95;;
61907;SDS011;47864;52.526;19.672;2024-02-26T09:05:18;36.05;;;20.17;;
61907;SDS011;47864;52.526;19.672;2024-02-26T09:07:20;39.33;;;20.85;;
61907;SDS011;47864;52.526;19.672;2024-02-26T09:09:22;47.83;;;27.50;;
61907;SDS011;47864;52.526;19.672;2024-02-26T09:11:23;35.10;;;20.67;;
61907;SDS011;47864;52.526;19.672;2024-02-26T09:13:25;39.30;;;21.80;;
61907;SDS011;47864;52.526;19.672;2024-02-26T09:15:26;34.60;;;20.42;;
61907;SDS011;47864;52.526;19.672;2024-02-26T09:17:28;38.47;;;23.33;;
61907;SDS011;47864;52.526;19.672;2024-02-26T09:19:29;38.42;;;20.42;;
61907;SDS011;47864;52.526;19.672;2024-02-26T09:21:31;35.20;;;21.33;;
61907;SDS011;47864;52.526;19.672;2024-02-26T09:23:33;36.47;;;20.10;;
61907;SDS011;47864;52.526;19.672;2024-02-26T09:25:34;38.30;;;21.27;;
61907;SDS011;47864;52.526;19.672;2024-02-26T09:27:36;31.35;;;18.55;;
61907;SDS011;47864;52.526;19.672;2024-02-26T09:29:41;45.63;;;27.33;;
61907;SDS011;47864;52.526;19.672;2024-02-26T09:31:43;47.05;;;28.55;;
61907;SDS011;47864;52.526;19.672;2024-02-26T09:33:45;41.08;;;22.60;;
61907;SDS011;47864;52.526;19.672;2024-02-26T09:35:46;35.53;;;20.65;;
61907;SDS011;47864;52.526;19.672;2024-02-26T09:37:48;36.85;;;22.15;;
61907;SDS011;47864;52.526;19.672;2024-02-26T09:39:50;206.30;;;119.45;;
61907;SDS011;47864;52.526;19.672;2024-02-26T09:41:52;43.90;;;23.45;;
61907;SDS011;47864;52.526;19.672;2024-02-26T09:43:55;43.55;;;22.58;;
61907;SDS011;47864;52.526;19.672;2024-02-26T09:45:58;38.03;;;21.25;;
61907;SDS011;47864;52.526;19.672;2024-02-26T09:47:59;41.50;;;21.75;;
61907;SDS011;47864;52.526;19.672;2024-02-26T09:50:05;37.63;;;19.70;;
61907;SDS011;47864;52.526;19.672;2024-02-26T09:52:10;36.60;;;19.40;;
61907;SDS011;47864;52.526;19.672;2024-02-26T09:54:11;30.45;;;17.30;;
61907;SDS011;47864;52.526;19.672;2024-02-26T09:56:14;28.77;;;17.08;;
61907;SDS011;47864;52.526;19.672;2024-02-26T09:58:16;30.23;;;18.15;;
61907;SDS011;47864;52.526;19.672;2024-02-26T10:00:20;31.65;;;17.40;;
61907;SDS011;47864;52.526;19.672;2024-02-26T10:02:23;39.85;;;24.33;;
61907;SDS011;47864;52.526;19.672;2024-02-26T10:04:25;33.67;;;20.38;;
61907;SDS011;47864;52.526;19.672;2024-02-26T10:06:27;42.70;;;22.85;;
61907;SDS011;47864;52.526;19.672;2024-02-26T10:08:30;35.50;;;22.17;;
61907;SDS011;47864;52.526;19.672;2024-02-26T10:10:32;90.95;;;45.55;;
61907;SDS011;47864;52.526;19.672;2024-02-26T10:12:34;47.95;;;25.10;;
61907;SDS011;47864;52.526;19.672;2024-02-26T10:14:35;36.13;;;18.38;;
61907;SDS011;47864;52.526;19.672;2024-02-26T10:16:37;45.95;;;18.25;;
61907;SDS011;47864;52.526;19.672;2024-02-26T10:18:51;28.25;;;15.48;;
61907;SDS011;47864;52.526;19.672;2024-02-26T10:21:00;34.00;;;17.05;;
61907;SDS011;47864;52.526;19.672;2024-02-26T10:23:02;27.15;;;14.68;;
61907;SDS011;47864;52.526;19.672;2024-02-26T10:25:05;33.53;;;16.42;;
61907;SDS011;47864;52.526;19.672;2024-02-26T10:27:06;29.10;;;15.80;;
61907;SDS011;47864;52.526;19.672;2024-02-26T10:29:10;35.05;;;18.25;;
61907;SDS011;47864;52.526;19.672;2024-02-26T10:31:13;27.00;;;15.63;;
61907;SDS011;47864;52.526;19.672;2024-02-26T10:33:15;23.23;;;13.32;;
61907;SDS011;47864;52.526;19.672;2024-02-26T10:35:17;21.05;;;12.25;;
61907;SDS011;47864;52.526;19.672;2024-02-26T10:37:20;19.02;;;12.05;;
61907;SDS011;47864;52.526;19.672;2024-02-26T10:39:21;30.52;;;15.57;;
61907;SDS011;47864;52.526;19.672;2024-02-26T10:41:23;16.23;;;10.00;;
61907;SDS011;47864;52.526;19.672;2024-02-26T10:43:25;14.73;;;9.63;;
61907;SDS011;47864;52.526;19.672;2024-02-26T10:45:26;20.30;;;11.57;;
61907;SDS011;47864;52.526;19.672;2024-02-26T10:47:29;16.67;;;10.68;;
61907;SDS011;47864;52.526;19.672;2024-02-26T10:49:30;16.30;;;9.88;;
61907;SDS011;47864;52.526;19.672;2024-02-26T10:51:35;18.60;;;10.82;;
61907;SDS011;47864;52.526;19.672;2024-02-26T10:55:46;17.73;;;10.18;;
61907;SDS011;47864;52.526;19.672;2024-02-26T10:57:50;18.45;;;11.10;;
61907;SDS011;47864;52.526;19.672;2024-02-26T10:59:54;18.20;;;10.38;;
61907;SDS011;47864;52.526;19.672;2024-02-26T11:01:57;15.80;;;8.23;;
61907;SDS011;47864;52.526;19.672;2024-02-26T11:03:59;13.87;;;8.33;;
61907;SDS011;47864;52.526;19.672;2024-02-26T11:06:01;16.23;;;8.05;;
61907;SDS011;47864;52.526;19.672;2024-02-26T11:10:07;15.00;;;8.30;;
61907;SDS011;47864;52.526;19.672;2024-02-26T11:12:09;13.68;;;8.60;;
61907;SDS011;47864;52.526;19.672;2024-02-26T11:14:12;16.58;;;8.30;;
61907;SDS011;47864;52.526;19.672;2024-02-26T11:16:16;16.15;;;8.02;;
61907;SDS011;47864;52.526;19.672;2024-02-26T11:18:19;12.75;;;6.72;;
61907;SDS011;47864;52.526;19.672;2024-02-26T11:20:23;14.40;;;6.38;;
61907;SDS011;47864;52.526;19.672;2024-02-26T11:22:25;11.98;;;6.28;;
61907;SDS011;47864;52.526;19.672;2024-02-26T11:24:27;12.60;;;6.80;;
61907;SDS011;47864;52.526;19.672;2024-02-26T11:26:29;14.65;;;6.95;;
61907;SDS011;47864;52.526;19.672;2024-02-26T11:28:32;13.90;;;7.22;;
61907;SDS011;47864;52.526;19.672;2024-02-26T11:30:35;16.38;;;7.30;;
61907;SDS011;47864;52.526;19.672;2024-02-26T11:32:40;16.55;;;6.70;;
61907;SDS011;47864;52.526;19.672;2024-02-26T11:34:42;11.85;;;5.85;;
61907;SDS011;47864;52.526;19.672;2024-02-26T11:36:48;10.45;;;6.03;;
61907;SDS011;47864;52.526;19.672;2024-02-26T11:38:50;8.45;;;5.22;;
61907;SDS011;47864;52.526;19.672;2024-02-26T11:40:52;10.50;;;5.97;;
61907;SDS011;47864;52.526;19.672;2024-02-26T11:42:54;9.43;;;5.97;;
61907;SDS011;47864;52.526;19.672;2024-02-26T11:44:56;17.50;;;8.45;;
61907;SDS011;47864;52.526;19.672;2024-02-26T11:46:57;14.85;;;7.65;;
61907;SDS011;47864;52.526;19.672;2024-02-26T11:49:00;18.00;;;10.15;;